sensor_id;sensor_type;location;lat;lon;timestamp;pressure;altitude;pressure_sealevel;temperature;humidity
24746;BME280;12845;52.042;6.838;2023-04-09T00:02:12;-18264.56;;;8.78;100.00
24746;BME280;12845;52.042;6.838;2023-04-09T00:04:38;-18264.84;;;8.79;100.00
24746;BME280;12845;52.042;6.838;2023-04-09T00:07:03;-18262.78;;;8.72;100.00
24746;BME280;12845;52.042;6.838;2023-04-09T00:09:29;-18262.22;;;8.70;100.00
24746;BME280;12845;52.042;6.838;2023-04-09T00:11:55;-18261.53;;;8.67;100.00
24746;BME280;12845;52.042;6.838;2023-04-09T00:14:21;-18260.16;;;8.62;100.00
24746;BME280;12845;52.042;6.838;2023-04-09T00:16:46;-18260.31;;;8.63;100.00
24746;BME280;12845;52.042;6.838;2023-04-09T00:19:12;-18261.28;;;8.66;100.00
24746;BME280;12845;52.042;6.838;2023-04-09T00:21:37;-18263.06;;;8.73;100.00
24746;BME280;12845;52.042;6.838;2023-04-09T00:24:03;-18260.31;;;8.63;100.00
24746;BME280;12845;52.042;6.838;2023-04-09T00:26:29;-18258.94;;;8.57;100.00
24746;BME280;12845;52.042;6.838;2023-04-09T00:28:55;-18261.81;;;8.68;100.00
24746;BME280;12845;52.042;6.838;2023-04-09T00:31:20;-18263.75;;;8.75;100.00
24746;BME280;12845;52.042;6.838;2023-04-09T00:33:45;-18263.59;;;8.75;100.00
24746;BME280;12845;52.042;6.838;2023-04-09T00:36:11;-18265.13;;;8.80;100.00
24746;BME280;12845;52.042;6.838;2023-04-09T00:38:36;-18264.00;;;8.76;100.00
24746;BME280;12845;52.042;6.838;2023-04-09T00:41:01;-18264.16;;;8.77;100.00
24746;BME280;12845;52.042;6.838;2023-04-09T00:43:27;-18262.50;;;8.71;100.00
24746;BME280;12845;52.042;6.838;2023-04-09T00:45:53;-18261.94;;;8.69;100.00
24746;BME280;12845;52.042;6.838;2023-04-09T00:48:18;-18260.44;;;8.63;100.00
24746;BME280;12845;52.042;6.838;2023-04-09T00:50:43;-18260.84;;;8.65;100.00
24746;BME280;12845;52.042;6.838;2023-04-09T00:53:09;-18261.81;;;8.68;100.00
24746;BME280;12845;52.042;6.838;2023-04-09T00:55:35;-18260.72;;;8.64;100.00
24746;BME280;12845;52.042;6.838;2023-04-09T00:58:00;-18261.13;;;8.66;100.00
24746;BME280;12845;52.042;6.838;2023-04-09T01:00:26;-18262.63;;;8.71;100.00
24746;BME280;12845;52.042;6.838;2023-04-09T01:02:52;-18259.34;;;8.59;100.00
24746;BME280;12845;52.042;6.838;2023-04-09T01:05:19;-18259.06;;;8.58;100.00
24746;BME280;12845;52.042;6.838;2023-04-09T01:07:54;-18257.00;;;8.50;100.00
24746;BME280;12845;52.042;6.838;2023-04-09T01:10:41;-18254.38;;;8.41;100.00
24746;BME280;12845;52.042;6.838;2023-04-09T01:13:17;-18251.63;;;8.30;100.00
24746;BME280;12845;52.042;6.838;2023-04-09T01:15:51;-18249.97;;;8.24;100.00
24746;BME280;12845;52.042;6.838;2023-04-09T01:18:22;-18249.41;;;8.22;100.00
24746;BME280;12845;52.042;6.838;2023-04-09T01:21:02;-18247.63;;;8.16;100.00
24746;BME280;12845;52.042;6.838;2023-04-09T01:23:55;-18247.09;;;8.13;100.00
24746;BME280;12845;52.042;6.838;2023-04-09T01:26:44;-18244.59;;;8.04;100.00
24746;BME280;12845;52.042;6.838;2023-04-09T01:29:19;-18244.75;;;8.05;100.00
24746;BME280;12845;52.042;6.838;2023-04-09T01:31:45;-18241.84;;;7.94;100.00
24746;BME280;12845;52.042;6.838;2023-04-09T01:34:13;-18241.44;;;7.93;100.00
24746;BME280;12845;52.042;6.838;2023-04-09T01:36:40;-18245.56;;;8.08;100.00
24746;BME280;12845;52.042;6.838;2023-04-09T01:39:07;-18245.16;;;8.06;100.00
24746;BME280;12845;52.042;6.838;2023-04-09T01:41:34;-18245.03;;;8.06;100.00
24746;BME280;12845;52.042;6.838;2023-04-09T01:44:01;-18241.44;;;7.93;100.00
24746;BME280;12845;52.042;6.838;2023-04-09T01:46:28;-18238.97;;;7.83;100.00
24746;BME280;12845;52.042;6.838;2023-04-09T01:48:54;-18238.41;;;7.81;100.00
24746;BME280;12845;52.042;6.838;2023-04-09T01:51:20;-18237.16;;;7.77;100.00
24746;BME280;12845;52.042;6.838;2023-04-09T01:53:46;-18235.78;;;7.72;100.00
24746;BME280;12845;52.042;6.838;2023-04-09T01:56:11;-18234.56;;;7.67;100.00
24746;BME280;12845;52.042;6.838;2023-04-09T01:58:36;-18233.44;;;7.63;100.00
24746;BME280;12845;52.042;6.838;2023-04-09T02:01:26;-18230.41;;;7.52;100.00
24746;BME280;12845;52.042;6.838;2023-04-09T02:03:59;-18228.91;;;7.46;100.00
24746;BME280;12845;52.042;6.838;2023-04-09T02:06:52;-18226.69;;;7.38;100.00
24746;BME280;12845;52.042;6.838;2023-04-09T02:09:19;-18224.91;;;7.31;100.00
24746;BME280;12845;52.042;6.838;2023-04-09T02:11:46;-18222.97;;;7.24;100.00
24746;BME280;12845;52.042;6.838;2023-04-09T02:14:13;-18222.44;;;7.22;100.00
24746;BME280;12845;52.042;6.838;2023-04-09T02:16:40;-18219.81;;;7.12;100.00
24746;BME280;12845;52.042;6.838;2023-04-09T02:19:06;-18216.09;;;6.98;100.00
24746;BME280;12845;52.042;6.838;2023-04-09T02:21:32;-18214.03;;;6.91;100.00
24746;BME280;12845;52.042;6.838;2023-04-09T02:23:57;-18212.78;;;6.86;100.00
24746;BME280;12845;52.042;6.838;2023-04-09T02:26:23;-18211.94;;;6.83;100.00
24746;BME280;12845;52.042;6.838;2023-04-09T02:28:49;-18211.41;;;6.81;100.00
24746;BME280;12845;52.042;6.838;2023-04-09T02:31:14;-18208.91;;;6.72;100.00
24746;BME280;12845;52.042;6.838;2023-04-09T02:33:39;-18206.84;;;6.64;100.00
24746;BME280;12845;52.042;6.838;2023-04-09T02:36:05;-18204.38;;;6.55;100.00
24746;BME280;12845;52.042;6.838;2023-04-09T02:38:31;-18203.53;;;6.52;100.00
24746;BME280;12845;52.042;6.838;2023-04-09T02:40:56;-18201.06;;;6.43;100.00
24746;BME280;12845;52.042;6.838;2023-04-09T02:43:22;-18199.69;;;6.38;100.00
24746;BME280;12845;52.042;6.838;2023-04-09T02:45:48;-18197.19;;;6.28;100.00
24746;BME280;12845;52.042;6.838;2023-04-09T02:48:13;-18196.50;;;6.26;100.00
24746;BME280;12845;52.042;6.838;2023-04-09T02:50:38;-18196.94;;;6.27;100.00
24746;BME280;12845;52.042;6.838;2023-04-09T02:53:04;-18194.31;;;6.18;100.00
24746;BME280;12845;52.042;6.838;2023-04-09T02:55:29;-18189.06;;;5.98;100.00
24746;BME280;12845;52.042;6.838;2023-04-09T02:57:55;-18187.00;;;5.91;100.00
24746;BME280;12845;52.042;6.838;2023-04-09T03:00:20;-18182.16;;;5.73;100.00
24746;BME280;12845;52.042;6.838;2023-04-09T03:02:45;-18181.63;;;5.71;100.00
24746;BME280;12845;52.042;6.838;2023-04-09T03:05:11;-18179.97;;;5.64;100.00
24746;BME280;12845;52.042;6.838;2023-04-09T03:07:36;-18179.13;;;5.61;100.00
24746;BME280;12845;52.042;6.838;2023-04-09T03:10:01;-18177.19;;;5.54;100.00
24746;BME280;12845;52.042;6.838;2023-04-09T03:12:27;-18175.13;;;5.47;100.00
24746;BME280;12845;52.042;6.838;2023-04-09T03:14:52;-18175.53;;;5.48;100.00
24746;BME280;12845;52.042;6.838;2023-04-09T03:17:17;-18175.53;;;5.48;100.00
24746;BME280;12845;52.042;6.838;2023-04-09T03:19:43;-18174.84;;;5.46;100.00
24746;BME280;12845;52.042;6.838;2023-04-09T03:22:08;-18171.13;;;5.32;100.00
24746;BME280;12845;52.042;6.838;2023-04-09T03:24:33;-18171.00;;;5.31;100.00
24746;BME280;12845;52.042;6.838;2023-04-09T03:26:59;-18169.75;;;5.27;100.00
24746;BME280;12845;52.042;6.838;2023-04-09T03:29:24;-18167.69;;;5.19;100.00
24746;BME280;12845;52.042;6.838;2023-04-09T03:31:50;-18167.53;;;5.18;100.00
24746;BME280;12845;52.042;6.838;2023-04-09T03:34:16;-18165.88;;;5.12;100.00
24746;BME280;12845;52.042;6.838;2023-04-09T03:36:41;-18164.09;;;5.06;100.00
24746;BME280;12845;52.042;6.838;2023-04-09T03:39:06;-18162.84;;;5.01;100.00
24746;BME280;12845;52.042;6.838;2023-04-09T03:41:31;-18163.13;;;5.02;100.00
24746;BME280;12845;52.042;6.838;2023-04-09T03:43:57;-18160.78;;;4.93;100.00
24746;BME280;12845;52.042;6.838;2023-04-09T03:46:22;-18161.88;;;4.97;100.00
24746;BME280;12845;52.042;6.838;2023-04-09T03:48:49;-18159.66;;;4.89;100.00
24746;BME280;12845;52.042;6.838;2023-04-09T03:51:15;-18158.00;;;4.83;100.00
24746;BME280;12845;52.042;6.838;2023-04-09T03:53:41;-18156.22;;;4.77;100.00
24746;BME280;12845;52.042;6.838;2023-04-09T03:56:07;-18156.91;;;4.79;100.00
24746;BME280;12845;52.042;6.838;2023-04-09T03:58:33;-18153.47;;;4.66;100.00
24746;BME280;12845;52.042;6.838;2023-04-09T04:00:59;-18151.53;;;4.59;100.00
24746;BME280;12845;52.042;6.838;2023-04-09T04:03:24;-18150.97;;;4.57;100.00
24746;BME280;12845;52.042;6.838;2023-04-09T04:05:49;-18151.94;;;4.61;100.00
24746;BME280;12845;52.042;6.838;2023-04-09T04:08:15;-18151.78;;;4.60;100.00
24746;BME280;12845;52.042;6.838;2023-04-09T04:10:40;-18151.66;;;4.60;100.00
24746;BME280;12845;52.042;6.838;2023-04-09T04:13:06;-18152.06;;;4.61;100.00
24746;BME280;12845;52.042;6.838;2023-04-09T04:15:33;-18149.88;;;4.53;100.00
24746;BME280;12845;52.042;6.838;2023-04-09T04:17:58;-18151.13;;;4.58;100.00
24746;BME280;12845;52.042;6.838;2023-04-09T04:20:24;-18151.53;;;4.59;100.00
24746;BME280;12845;52.042;6.838;2023-04-09T04:22:49;-18149.72;;;4.52;100.00
24746;BME280;12845;52.042;6.838;2023-04-09T04:25:14;-18148.34;;;4.47;100.00
24746;BME280;12845;52.042;6.838;2023-04-09T04:27:41;-18149.03;;;4.50;100.00
24746;BME280;12845;52.042;6.838;2023-04-09T04:30:07;-18148.91;;;4.49;100.00
24746;BME280;12845;52.042;6.838;2023-04-09T04:32:32;-18147.94;;;4.46;100.00
24746;BME280;12845;52.042;6.838;2023-04-09T04:34:58;-18146.97;;;4.42;100.00
24746;BME280;12845;52.042;6.838;2023-04-09T04:37:23;-18146.81;;;4.42;100.00
24746;BME280;12845;52.042;6.838;2023-04-09T04:39:49;-18145.88;;;4.38;100.00
24746;BME280;12845;52.042;6.838;2023-04-09T04:42:14;-18143.94;;;4.31;100.00
24746;BME280;12845;52.042;6.838;2023-04-09T04:44:39;-18142.56;;;4.26;100.00
24746;BME280;12845;52.042;6.838;2023-04-09T04:47:05;-18140.63;;;4.19;100.00
24746;BME280;12845;52.042;6.838;2023-04-09T04:49:30;-18136.88;;;4.05;100.00
24746;BME280;12845;52.042;6.838;2023-04-09T04:51:55;-18138.00;;;4.09;100.00
24746;BME280;12845;52.042;6.838;2023-04-09T04:54:21;-18135.78;;;4.01;100.00
24746;BME280;12845;52.042;6.838;2023-04-09T04:56:46;-18131.50;;;3.85;100.00
24746;BME280;12845;52.042;6.838;2023-04-09T04:59:11;-18131.78;;;3.86;100.00
24746;BME280;12845;52.042;6.838;2023-04-09T05:01:37;-18131.34;;;3.84;100.00
24746;BME280;12845;52.042;6.838;2023-04-09T05:04:02;-18130.53;;;3.81;100.00
24746;BME280;12845;52.042;6.838;2023-04-09T05:06:28;-18130.38;;;3.81;100.00
24746;BME280;12845;52.042;6.838;2023-04-09T05:08:54;-18130.66;;;3.82;100.00
24746;BME280;12845;52.042;6.838;2023-04-09T05:11:23;-18131.34;;;3.84;100.00
24746;BME280;12845;52.042;6.838;2023-04-09T05:13:48;-18133.56;;;3.93;100.00
24746;BME280;12845;52.042;6.838;2023-04-09T05:16:15;-18134.94;;;3.98;100.00
24746;BME280;12845;52.042;6.838;2023-04-09T05:18:41;-18136.47;;;4.03;100.00
24746;BME280;12845;52.042;6.838;2023-04-09T05:21:07;-18134.94;;;3.98;100.00
24746;BME280;12845;52.042;6.838;2023-04-09T05:23:32;-18133.84;;;3.94;100.00
24746;BME280;12845;52.042;6.838;2023-04-09T05:25:57;-18133.56;;;3.93;100.00
24746;BME280;12845;52.042;6.838;2023-04-09T05:28:23;-18133.72;;;3.93;100.00
24746;BME280;12845;52.042;6.838;2023-04-09T05:30:48;-18132.59;;;3.89;100.00
24746;BME280;12845;52.042;6.838;2023-04-09T05:33:13;-18133.97;;;3.94;100.00
24746;BME280;12845;52.042;6.838;2023-04-09T05:35:39;-18134.94;;;3.98;100.00
24746;BME280;12845;52.042;6.838;2023-04-09T05:38:05;-18136.59;;;4.04;100.00
24746;BME280;12845;52.042;6.838;2023-04-09T05:40:30;-18136.59;;;4.04;100.00
24746;BME280;12845;52.042;6.838;2023-04-09T05:42:55;-18137.31;;;4.06;100.00
24746;BME280;12845;52.042;6.838;2023-04-09T05:45:21;-18140.19;;;4.17;100.00
24746;BME280;12845;52.042;6.838;2023-04-09T05:47:46;-18141.56;;;4.22;100.00
24746;BME280;12845;52.042;6.838;2023-04-09T05:50:11;-18143.22;;;4.28;100.00
24746;BME280;12845;52.042;6.838;2023-04-09T05:52:37;-18143.50;;;4.29;100.00
24746;BME280;12845;52.042;6.838;2023-04-09T05:55:02;-18146.28;;;4.40;100.00
24746;BME280;12845;52.042;6.838;2023-04-09T05:57:29;-18147.25;;;4.43;100.00
24746;BME280;12845;52.042;6.838;2023-04-09T05:59:56;-18148.47;;;4.48;100.00
24746;BME280;12845;52.042;6.838;2023-04-09T06:02:21;-18150.97;;;4.57;100.00
24746;BME280;12845;52.042;6.838;2023-04-09T06:04:46;-18151.38;;;4.59;100.00
24746;BME280;12845;52.042;6.838;2023-04-09T06:07:12;-18153.03;;;4.65;100.00
24746;BME280;12845;52.042;6.838;2023-04-09T06:09:37;-18155.38;;;4.73;100.00
24746;BME280;12845;52.042;6.838;2023-04-09T06:12:02;-18156.50;;;4.78;100.00
24746;BME280;12845;52.042;6.838;2023-04-09T06:14:28;-18158.16;;;4.84;100.00
24746;BME280;12845;52.042;6.838;2023-04-09T06:16:57;-18159.66;;;4.89;100.00
24746;BME280;12845;52.042;6.838;2023-04-09T06:19:23;-18162.03;;;4.98;100.00
24746;BME280;12845;52.042;6.838;2023-04-09T06:21:48;-18164.38;;;5.07;100.00
24746;BME280;12845;52.042;6.838;2023-04-09T06:24:14;-18166.84;;;5.16;100.00
24746;BME280;12845;52.042;6.838;2023-04-09T06:26:39;-18169.19;;;5.25;100.00
24746;BME280;12845;52.042;6.838;2023-04-09T06:29:05;-18171.25;;;5.32;100.00
24746;BME280;12845;52.042;6.838;2023-04-09T06:31:31;-18172.50;;;5.37;100.00
24746;BME280;12845;52.042;6.838;2023-04-09T06:33:56;-18176.50;;;5.52;100.00
24746;BME280;12845;52.042;6.838;2023-04-09T06:36:21;-18179.41;;;5.62;100.00
24746;BME280;12845;52.042;6.838;2023-04-09T06:38:47;-18181.75;;;5.71;100.00
24746;BME280;12845;52.042;6.838;2023-04-09T06:41:12;-18183.81;;;5.79;100.00
24746;BME280;12845;52.042;6.838;2023-04-09T06:43:39;-18186.31;;;5.88;100.00
24746;BME280;12845;52.042;6.838;2023-04-09T06:46:05;-18188.22;;;5.95;100.00
24746;BME280;12845;52.042;6.838;2023-04-09T06:48:30;-18190.16;;;6.02;100.00
24746;BME280;12845;52.042;6.838;2023-04-09T06:50:56;-18193.06;;;6.13;100.00
24746;BME280;12845;52.042;6.838;2023-04-09T06:53:21;-18195.28;;;6.21;100.00
24746;BME280;12845;52.042;6.838;2023-04-09T06:55:47;-18197.19;;;6.28;100.00
24746;BME280;12845;52.042;6.838;2023-04-09T06:58:12;-18200.09;;;6.39;100.00
24746;BME280;12845;52.042;6.838;2023-04-09T07:00:41;-18202.44;;;6.48;100.00
24746;BME280;12845;52.042;6.838;2023-04-09T07:03:06;-18205.34;;;6.59;100.00
24746;BME280;12845;52.042;6.838;2023-04-09T07:05:33;-18210.31;;;6.77;100.00
24746;BME280;12845;52.042;6.838;2023-04-09T07:08:01;-18212.66;;;6.86;100.00
24746;BME280;12845;52.042;6.838;2023-04-09T07:10:28;-18213.06;;;6.87;100.00
24746;BME280;12845;52.042;6.838;2023-04-09T07:12:53;-18214.44;;;6.92;100.00
24746;BME280;12845;52.042;6.838;2023-04-09T07:15:18;-18215.25;;;6.95;100.00
24746;BME280;12845;52.042;6.838;2023-04-09T07:17:44;-18217.47;;;7.04;100.00
24746;BME280;12845;52.042;6.838;2023-04-09T07:20:10;-18221.31;;;7.18;100.00
24746;BME280;12845;52.042;6.838;2023-04-09T07:22:35;-18222.69;;;7.23;100.00
24746;BME280;12845;52.042;6.838;2023-04-09T07:25:00;-18225.47;;;7.33;100.00
24746;BME280;12845;52.042;6.838;2023-04-09T07:27:26;-18226.97;;;7.39;100.00
24746;BME280;12845;52.042;6.838;2023-04-09T07:29:56;-18228.91;;;7.46;100.00
24746;BME280;12845;52.042;6.838;2023-04-09T07:32:22;-18230.97;;;7.54;100.00
24746;BME280;12845;52.042;6.838;2023-04-09T07:34:51;-18233.72;;;7.64;100.00
24746;BME280;12845;52.042;6.838;2023-04-09T07:37:16;-18237.44;;;7.78;100.00
24746;BME280;12845;52.042;6.838;2023-04-09T07:39:42;-18238.97;;;7.83;100.00
24746;BME280;12845;52.042;6.838;2023-04-09T07:42:07;-18239.50;;;7.85;100.00
24746;BME280;12845;52.042;6.838;2023-04-09T07:44:34;-18241.03;;;7.91;100.00
24746;BME280;12845;52.042;6.838;2023-04-09T07:47:01;-18244.75;;;8.05;100.00
24746;BME280;12845;52.042;6.838;2023-04-09T07:49:26;-18248.03;;;8.17;100.00
24746;BME280;12845;52.042;6.838;2023-04-09T07:51:51;-18250.53;;;8.26;100.00
24746;BME280;12845;52.042;6.838;2023-04-09T07:54:17;-18255.22;;;8.44;100.00
24746;BME280;12845;52.042;6.838;2023-04-09T07:56:44;-18257.13;;;8.51;100.00
24746;BME280;12845;52.042;6.838;2023-04-09T07:59:09;-18258.50;;;8.56;100.00
24746;BME280;12845;52.042;6.838;2023-04-09T08:01:35;-18261.81;;;8.68;100.00
24746;BME280;12845;52.042;6.838;2023-04-09T08:04:00;-18263.75;;;8.75;100.00
24746;BME280;12845;52.042;6.838;2023-04-09T08:06:26;-18261.53;;;8.67;100.00
24746;BME280;12845;52.042;6.838;2023-04-09T08:08:51;-18264.84;;;8.79;100.00
24746;BME280;12845;52.042;6.838;2023-04-09T08:11:17;-18269.38;;;8.96;100.00
24746;BME280;12845;52.042;6.838;2023-04-09T08:13:49;-18273.38;;;9.11;100.00
24746;BME280;12845;52.042;6.838;2023-04-09T08:16:14;-18276.00;;;9.21;100.00
24746;BME280;12845;52.042;6.838;2023-04-09T08:18:40;-18276.00;;;9.21;100.00
24746;BME280;12845;52.042;6.838;2023-04-09T08:21:05;-18278.06;;;9.29;100.00
24746;BME280;12845;52.042;6.838;2023-04-09T08:23:30;-18278.31;;;9.30;100.00
24746;BME280;12845;52.042;6.838;2023-04-09T08:25:56;-18281.34;;;9.41;100.00
24746;BME280;12845;52.042;6.838;2023-04-09T08:28:21;-18282.19;;;9.44;100.00
24746;BME280;12845;52.042;6.838;2023-04-09T08:30:47;-18284.38;;;9.52;100.00
24746;BME280;12845;52.042;6.838;2023-04-09T08:33:13;-18287.69;;;9.64;100.00
24746;BME280;12845;52.042;6.838;2023-04-09T08:35:38;-18289.88;;;9.73;100.00
24746;BME280;12845;52.042;6.838;2023-04-09T08:38:05;-18291.38;;;9.78;100.00
24746;BME280;12845;52.042;6.838;2023-04-09T08:40:39;-18292.91;;;9.84;100.00
24746;BME280;12845;52.042;6.838;2023-04-09T08:43:06;-18298.41;;;10.04;100.00
24746;BME280;12845;52.042;6.838;2023-04-09T08:45:32;-18302.78;;;10.21;100.00
24746;BME280;12845;52.042;6.838;2023-04-09T08:47:57;-18306.66;;;10.35;100.00
24746;BME280;12845;52.042;6.838;2023-04-09T08:50:26;-18307.06;;;10.36;100.00
24746;BME280;12845;52.042;6.838;2023-04-09T08:52:52;-18311.75;;;10.54;100.00
24746;BME280;12845;52.042;6.838;2023-04-09T08:55:17;-18311.88;;;10.54;100.00
24746;BME280;12845;52.042;6.838;2023-04-09T08:57:42;-18312.28;;;10.56;100.00
24746;BME280;12845;52.042;6.838;2023-04-09T09:00:08;-18316.28;;;10.71;100.00
24746;BME280;12845;52.042;6.838;2023-04-09T09:02:34;-18318.19;;;10.78;100.00
24746;BME280;12845;52.042;6.838;2023-04-09T09:04:59;-18319.56;;;10.83;100.00
24746;BME280;12845;52.042;6.838;2023-04-09T09:07:29;-18319.00;;;10.81;100.00
24746;BME280;12845;52.042;6.838;2023-04-09T09:10:00;-18322.59;;;10.94;100.00
24746;BME280;12845;52.042;6.838;2023-04-09T09:12:31;-18327.41;;;11.12;100.00
24746;BME280;12845;52.042;6.838;2023-04-09T09:14:56;-18326.84;;;11.10;100.00
24746;BME280;12845;52.042;6.838;2023-04-09T09:17:23;-18328.34;;;11.16;100.00
24746;BME280;12845;52.042;6.838;2023-04-09T09:19:48;-18331.66;;;11.28;100.00
24746;BME280;12845;52.042;6.838;2023-04-09T09:22:14;-18332.88;;;11.33;100.00
24746;BME280;12845;52.042;6.838;2023-04-09T09:24:50;-18337.97;;;11.51;100.00
24746;BME280;12845;52.042;6.838;2023-04-09T09:27:33;-18337.84;;;11.51;100.00
24746;BME280;12845;52.042;6.838;2023-04-09T09:30:01;-18339.88;;;11.59;100.00
24746;BME280;12845;52.042;6.838;2023-04-09T09:32:27;-18337.56;;;11.50;100.00
24746;BME280;12845;52.042;6.838;2023-04-09T09:35:03;-18342.34;;;11.68;100.00
24746;BME280;12845;52.042;6.838;2023-04-09T09:37:29;-18347.84;;;11.88;100.00
24746;BME280;12845;52.042;6.838;2023-04-09T09:39:56;-18346.47;;;11.83;100.00
24746;BME280;12845;52.042;6.838;2023-04-09T09:42:21;-18348.94;;;11.92;100.00
24746;BME280;12845;52.042;6.838;2023-04-09T09:44:47;-18350.59;;;11.99;100.00
24746;BME280;12845;52.042;6.838;2023-04-09T09:47:13;-18352.78;;;12.07;100.00
24746;BME280;12845;52.042;6.838;2023-04-09T09:49:39;-18349.63;;;11.95;100.00
24746;BME280;12845;52.042;6.838;2023-04-09T09:52:09;-18349.38;;;11.94;100.00
24746;BME280;12845;52.042;6.838;2023-04-09T09:54:40;-18351.00;;;12.00;100.00
24746;BME280;12845;52.042;6.838;2023-04-09T09:57:10;-18354.84;;;12.14;100.00
24746;BME280;12845;52.042;6.838;2023-04-09T09:59:39;-18356.91;;;12.22;100.00
24746;BME280;12845;52.042;6.838;2023-04-09T10:02:08;-18355.69;;;12.17;100.00
24746;BME280;12845;52.042;6.838;2023-04-09T10:04:37;-18356.38;;;12.20;100.00
24746;BME280;12845;52.042;6.838;2023-04-09T10:07:05;-18360.47;;;12.35;100.00
24746;BME280;12845;52.042;6.838;2023-04-09T10:09:34;-18359.38;;;12.31;100.00
24746;BME280;12845;52.042;6.838;2023-04-09T10:11:59;-18360.19;;;12.34;100.00
24746;BME280;12845;52.042;6.838;2023-04-09T10:14:25;-18362.81;;;12.44;100.00
24746;BME280;12845;52.042;6.838;2023-04-09T10:16:53;-18366.38;;;12.57;100.00
24746;BME280;12845;52.042;6.838;2023-04-09T10:19:18;-18368.44;;;12.65;100.00
24746;BME280;12845;52.042;6.838;2023-04-09T10:22:08;-18369.13;;;12.68;100.00
24746;BME280;12845;52.042;6.838;2023-04-09T10:24:34;-18373.22;;;12.83;100.00
24746;BME280;12845;52.042;6.838;2023-04-09T10:27:11;-18375.00;;;12.90;100.00
24746;BME280;12845;52.042;6.838;2023-04-09T10:29:45;-18378.03;;;13.01;100.00
24746;BME280;12845;52.042;6.838;2023-04-09T10:32:11;-18379.69;;;13.07;100.00
24746;BME280;12845;52.042;6.838;2023-04-09T10:34:38;-18379.94;;;13.08;100.00
24746;BME280;12845;52.042;6.838;2023-04-09T10:37:07;-18378.44;;;13.02;100.00
24746;BME280;12845;52.042;6.838;2023-04-09T10:39:36;-18376.09;;;12.94;100.00
24746;BME280;12845;52.042;6.838;2023-04-09T10:42:07;-18372.00;;;12.78;100.00
24746;BME280;12845;52.042;6.838;2023-04-09T10:44:38;-18371.19;;;12.75;100.00
24746;BME280;12845;52.042;6.838;2023-04-09T10:47:05;-18371.88;;;12.78;100.00
24746;BME280;12845;52.042;6.838;2023-04-09T10:49:39;-18376.66;;;12.96;100.00
24746;BME280;12845;52.042;6.838;2023-04-09T10:52:11;-18382.13;;;13.16;100.00
24746;BME280;12845;52.042;6.838;2023-04-09T10:54:41;-18381.88;;;13.15;100.00
24746;BME280;12845;52.042;6.838;2023-04-09T10:59:33;-18383.78;;;13.22;100.00
24746;BME280;12845;52.042;6.838;2023-04-09T11:01:59;-18387.63;;;13.37;100.00
24746;BME280;12845;52.042;6.838;2023-04-09T11:07:23;-18392.84;;;13.56;100.00
24746;BME280;12845;52.042;6.838;2023-04-09T11:09:49;-18390.50;;;13.47;89.89
24746;BME280;12845;52.042;6.838;2023-04-09T11:12:15;-18390.91;;;13.49;100.00
24746;BME280;12845;52.042;6.838;2023-04-09T11:14:41;-18396.13;;;13.68;99.22
24746;BME280;12845;52.042;6.838;2023-04-09T11:17:06;-18395.56;;;13.66;100.00
24746;BME280;12845;52.042;6.838;2023-04-09T11:19:34;-18397.34;;;13.73;100.00
24746;BME280;12845;52.042;6.838;2023-04-09T11:22:03;-18402.16;;;13.91;100.00
24746;BME280;12845;52.042;6.838;2023-04-09T11:24:43;-18407.22;;;14.10;100.00
24746;BME280;12845;52.042;6.838;2023-04-09T11:27:09;-18408.19;;;14.13;89.08
24746;BME280;12845;52.042;6.838;2023-04-09T11:29:35;-18405.72;;;14.04;98.34
24746;BME280;12845;52.042;6.838;2023-04-09T11:32:00;-18410.50;;;14.22;98.88
24746;BME280;12845;52.042;6.838;2023-04-09T11:34:30;-18406.94;;;14.09;93.02
24746;BME280;12845;52.042;6.838;2023-04-09T11:36:55;-18404.63;;;14.00;96.59
24746;BME280;12845;52.042;6.838;2023-04-09T11:39:23;-18404.75;;;14.00;90.75
24746;BME280;12845;52.042;6.838;2023-04-09T11:41:48;-18404.63;;;14.00;100.00
24746;BME280;12845;52.042;6.838;2023-04-09T11:44:14;-18410.50;;;14.22;100.00
24746;BME280;12845;52.042;6.838;2023-04-09T11:46:40;-18413.94;;;14.35;95.13
24746;BME280;12845;52.042;6.838;2023-04-09T11:49:06;-18414.47;;;14.37;95.96
24746;BME280;12845;52.042;6.838;2023-04-09T11:51:32;-18412.69;;;14.30;91.38
24746;BME280;12845;52.042;6.838;2023-04-09T11:54:02;-18416.13;;;14.43;100.00
24746;BME280;12845;52.042;6.838;2023-04-09T11:56:29;-18420.38;;;14.59;98.49
24746;BME280;12845;52.042;6.838;2023-04-09T11:58:55;-18421.59;;;14.63;100.00
24746;BME280;12845;52.042;6.838;2023-04-09T12:01:21;-18430.22;;;14.96;100.00
24746;BME280;12845;52.042;6.838;2023-04-09T12:03:54;-18436.66;;;15.20;100.00
24746;BME280;12845;52.042;6.838;2023-04-09T12:06:21;-18434.88;;;15.13;97.64
24746;BME280;12845;52.042;6.838;2023-04-09T12:08:56;-18435.69;;;15.16;100.00
24746;BME280;12845;52.042;6.838;2023-04-09T12:11:31;-18439.25;;;15.29;99.72
24746;BME280;12845;52.042;6.838;2023-04-09T12:14:00;-18442.13;;;15.40;89.75
24746;BME280;12845;52.042;6.838;2023-04-09T12:16:29;-18442.41;;;15.41;93.03
24746;BME280;12845;52.042;6.838;2023-04-09T12:18:59;-18438.97;;;15.28;86.57
24746;BME280;12845;52.042;6.838;2023-04-09T12:21:25;-18437.06;;;15.21;100.00
24746;BME280;12845;52.042;6.838;2023-04-09T12:23:52;-18439.25;;;15.29;100.00
24746;BME280;12845;52.042;6.838;2023-04-09T12:26:18;-18444.44;;;15.49;100.00
24746;BME280;12845;52.042;6.838;2023-04-09T12:28:43;-18449.91;;;15.69;100.00
24746;BME280;12845;52.042;6.838;2023-04-09T12:31:09;-18453.34;;;15.82;98.85
24746;BME280;12845;52.042;6.838;2023-04-09T12:33:35;-18448.00;;;15.62;100.00
24746;BME280;12845;52.042;6.838;2023-04-09T12:36:03;-18449.91;;;15.69;100.00
24746;BME280;12845;52.042;6.838;2023-04-09T12:38:28;-18452.66;;;15.79;100.00
24746;BME280;12845;52.042;6.838;2023-04-09T12:40:53;-18452.53;;;15.79;100.00
24746;BME280;12845;52.042;6.838;2023-04-09T12:43:19;-18451.97;;;15.77;92.52
24746;BME280;12845;52.042;6.838;2023-04-09T12:45:44;-18453.34;;;15.82;100.00
24746;BME280;12845;52.042;6.838;2023-04-09T12:48:10;-18447.19;;;15.59;92.79
24746;BME280;12845;52.042;6.838;2023-04-09T12:50:35;-18440.75;;;15.35;91.05
24746;BME280;12845;52.042;6.838;2023-04-09T12:53:01;-18434.72;;;15.12;84.74